sensor_id;sensor_type;location;lat;lon;timestamp;pressure;altitude;pressure_sealevel;temperature;humidity
70206;BME280;57593;55.896;37.396;2023-02-18T00:00:19;99404.97;;;-5.52;100.00
70206;BME280;57593;55.896;37.396;2023-02-18T00:00:51;99402.97;;;-5.38;100.00
70206;BME280;57593;55.896;37.396;2023-02-18T00:01:23;99401.84;;;-5.54;100.00
70206;BME280;57593;55.896;37.396;2023-02-18T00:01:53;99405.75;;;-5.52;100.00
70206;BME280;57593;55.896;37.396;2023-02-18T00:02:24;99407.44;;;-5.46;100.00
70206;BME280;57593;55.896;37.396;2023-02-18T00:02:55;99402.50;;;-5.59;100.00
70206;BME280;57593;55.896;37.396;2023-02-18T00:03:27;99401.16;;;-5.62;100.00
70206;BME280;57593;55.896;37.396;2023-02-18T00:03:58;99403.75;;;-5.50;100.00
70206;BME280;57593;55.896;37.396;2023-02-18T00:04:30;99402.88;;;-5.44;100.00
70206;BME280;57593;55.896;37.396;2023-02-18T00:05:00;99410.59;;;-5.44;100.00
70206;BME280;57593;55.896;37.396;2023-02-18T00:05:31;99400.50;;;-5.45;100.00
70206;BME280;57593;55.896;37.396;2023-02-18T00:06:52;99393.13;;;-5.30;100.00
70206;BME280;57593;55.896;37.396;2023-02-18T00:07:22;99400.28;;;-5.32;100.00
70206;BME280;57593;55.896;37.396;2023-02-18T00:07:53;99396.03;;;-5.38;100.00
70206;BME280;57593;55.896;37.396;2023-02-18T00:08:23;99399.03;;;-5.41;100.00
70206;BME280;57593;55.896;37.396;2023-02-18T00:08:55;99397.94;;;-5.33;100.00
70206;BME280;57593;55.896;37.396;2023-02-18T00:09:28;99393.13;;;-5.42;100.00
70206;BME280;57593;55.896;37.396;2023-02-18T00:09:58;99395.56;;;-5.58;100.00
70206;BME280;57593;55.896;37.396;2023-02-18T00:10:29;99392.44;;;-5.49;100.00
70206;BME280;57593;55.896;37.396;2023-02-18T00:11:00;99396.03;;;-5.38;100.00
70206;BME280;57593;55.896;37.396;2023-02-18T00:11:33;99398.28;;;-5.42;100.00
70206;BME280;57593;55.896;37.396;2023-02-18T00:12:04;99401.53;;;-5.34;100.00
70206;BME280;57593;55.896;37.396;2023-02-18T00:12:34;99397.94;;;-5.45;100.00
70206;BME280;57593;55.896;37.396;2023-02-18T00:13:05;99393.69;;;-5.28;100.00
70206;BME280;57593;55.896;37.396;2023-02-18T00:13:36;99400.06;;;-5.30;100.00
70206;BME280;57593;55.896;37.396;2023-02-18T00:14:11;99396.38;;;-5.34;100.00
70206;BME280;57593;55.896;37.396;2023-02-18T00:14:42;99394.56;;;-5.34;100.00
70206;BME280;57593;55.896;37.396;2023-02-18T00:15:13;99389.53;;;-5.40;100.00
70206;BME280;57593;55.896;37.396;2023-02-18T00:15:43;99393.88;;;-5.65;100.00
70206;BME280;57593;55.896;37.396;2023-02-18T00:16:14;99401.25;;;-5.56;100.00
70206;BME280;57593;55.896;37.396;2023-02-18T00:16:45;99392.53;;;-5.55;100.00
70206;BME280;57593;55.896;37.396;2023-02-18T00:17:16;99390.53;;;-5.53;100.00
70206;BME280;57593;55.896;37.396;2023-02-18T00:17:47;99390.53;;;-5.53;100.00
70206;BME280;57593;55.896;37.396;2023-02-18T00:18:17;99381.25;;;-5.54;100.00
70206;BME280;57593;55.896;37.396;2023-02-18T00:18:48;99389.88;;;-5.61;100.00
70206;BME280;57593;55.896;37.396;2023-02-18T00:19:19;99386.63;;;-5.56;100.00
70206;BME280;57593;55.896;37.396;2023-02-18T00:19:50;99385.50;;;-5.36;100.00
70206;BME280;57593;55.896;37.396;2023-02-18T00:20:20;99385.72;;;-5.38;100.00
70206;BME280;57593;55.896;37.396;2023-02-18T00:20:51;99382.81;;;-5.42;100.00
70206;BME280;57593;55.896;37.396;2023-02-18T00:21:22;99384.72;;;-5.49;100.00
70206;BME280;57593;55.896;37.396;2023-02-18T00:21:52;99385.06;;;-5.45;100.00
70206;BME280;57593;55.896;37.396;2023-02-18T00:22:23;99384.50;;;-5.35;100.00
70206;BME280;57593;55.896;37.396;2023-02-18T00:22:54;99381.94;;;-5.35;100.00
70206;BME280;57593;55.896;37.396;2023-02-18T00:23:25;99374.19;;;-5.47;100.00
70206;BME280;57593;55.896;37.396;2023-02-18T00:23:56;99387.72;;;-5.52;100.00
70206;BME280;57593;55.896;37.396;2023-02-18T00:24:27;99381.13;;;-5.48;100.00
70206;BME280;57593;55.896;37.396;2023-02-18T00:24:58;99378.22;;;-5.39;100.00
70206;BME280;57593;55.896;37.396;2023-02-18T00:25:28;99372.06;;;-5.50;100.00
70206;BME280;57593;55.896;37.396;2023-02-18T00:26:05;99365.94;;;-5.37;100.00
70206;BME280;57593;55.896;37.396;2023-02-18T00:26:36;99371.41;;;-5.46;100.00
70206;BME280;57593;55.896;37.396;2023-02-18T00:27:07;99373.53;;;-5.43;100.00
70206;BME280;57593;55.896;37.396;2023-02-18T00:27:37;99365.94;;;-5.37;100.00
70206;BME280;57593;55.896;37.396;2023-02-18T00:28:08;99378.34;;;-5.34;100.00
70206;BME280;57593;55.896;37.396;2023-02-18T00:28:39;99371.63;;;-5.35;100.00
70206;BME280;57593;55.896;37.396;2023-02-18T00:29:10;99374.44;;;-5.37;100.00
70206;BME280;57593;55.896;37.396;2023-02-18T00:29:41;99372.31;;;-5.40;100.00
70206;BME280;57593;55.896;37.396;2023-02-18T00:30:12;99372.06;;;-5.38;100.00
70206;BME280;57593;55.896;37.396;2023-02-18T00:30:42;99374.09;;;-5.40;100.00
70206;BME280;57593;55.896;37.396;2023-02-18T00:31:16;99376.78;;;-5.47;100.00
70206;BME280;57593;55.896;37.396;2023-02-18T00:31:47;99370.84;;;-5.48;100.00
70206;BME280;57593;55.896;37.396;2023-02-18T00:32:18;99370.19;;;-5.43;100.00
70206;BME280;57593;55.896;37.396;2023-02-18T00:32:49;99375.00;;;-5.47;100.00
70206;BME280;57593;55.896;37.396;2023-02-18T00:33:19;99377.34;;;-5.45;100.00
70206;BME280;57593;55.896;37.396;2023-02-18T00:33:50;99371.53;;;-5.40;100.00
70206;BME280;57593;55.896;37.396;2023-02-18T00:34:21;99375.44;;;-5.50;100.00
70206;BME280;57593;55.896;37.396;2023-02-18T00:34:51;99376.00;;;-5.36;100.00
70206;BME280;57593;55.896;37.396;2023-02-18T00:35:22;99370.72;;;-5.29;100.00
70206;BME280;57593;55.896;37.396;2023-02-18T00:36:00;99378.03;;;-5.50;100.00
70206;BME280;57593;55.896;37.396;2023-02-18T00:36:31;99376.56;;;-5.34;100.00
70206;BME280;57593;55.896;37.396;2023-02-18T00:37:03;99373.06;;;-5.39;100.00
70206;BME280;57593;55.896;37.396;2023-02-18T00:37:33;99378.81;;;-5.37;100.00
70206;BME280;57593;55.896;37.396;2023-02-18T00:38:04;99372.31;;;-5.40;100.00
70206;BME280;57593;55.896;37.396;2023-02-18T00:38:35;99367.94;;;-5.28;100.00
70206;BME280;57593;55.896;37.396;2023-02-18T00:39:08;99364.09;;;-5.25;100.00
70206;BME280;57593;55.896;37.396;2023-02-18T00:39:39;99364.69;;;-5.35;100.00
70206;BME280;57593;55.896;37.396;2023-02-18T00:40:10;99364.81;;;-5.30;100.00
70206;BME280;57593;55.896;37.396;2023-02-18T00:40:40;99360.88;;;-5.32;100.00
70206;BME280;57593;55.896;37.396;2023-02-18T00:41:11;99360.44;;;-5.41;100.00
70206;BME280;57593;55.896;37.396;2023-02-18T00:41:43;99362.91;;;-5.34;100.00
70206;BME280;57593;55.896;37.396;2023-02-18T00:42:13;99365.38;;;-5.28;100.00
70206;BME280;57593;55.896;37.396;2023-02-18T00:42:44;99368.84;;;-5.34;100.00
70206;BME280;57593;55.896;37.396;2023-02-18T00:43:14;99366.13;;;-5.27;100.00
70206;BME280;57593;55.896;37.396;2023-02-18T00:43:45;99349.59;;;-5.31;100.00
70206;BME280;57593;55.896;37.396;2023-02-18T00:44:16;99355.63;;;-5.37;100.00
70206;BME280;57593;55.896;37.396;2023-02-18T00:44:47;99350.50;;;-5.37;100.00
70206;BME280;57593;55.896;37.396;2023-02-18T00:45:18;99352.38;;;-5.33;100.00
70206;BME280;57593;55.896;37.396;2023-02-18T00:45:49;99350.59;;;-5.32;100.00
70206;BME280;57593;55.896;37.396;2023-02-18T00:46:20;99357.41;;;-5.26;100.00
70206;BME280;57593;55.896;37.396;2023-02-18T00:46:51;99350.34;;;-5.19;100.00
70206;BME280;57593;55.896;37.396;2023-02-18T00:47:22;99344.53;;;-5.26;100.00
70206;BME280;57593;55.896;37.396;2023-02-18T00:47:53;99351.03;;;-5.47;100.00
70206;BME280;57593;55.896;37.396;2023-02-18T00:48:23;99348.78;;;-5.32;100.00
70206;BME280;57593;55.896;37.396;2023-02-18T00:48:54;99344.34;;;-5.48;100.00
70206;BME280;57593;55.896;37.396;2023-02-18T00:49:25;99339.16;;;-5.36;100.00
70206;BME280;57593;55.896;37.396;2023-02-18T00:49:56;99347.22;;;-5.21;100.00
70206;BME280;57593;55.896;37.396;2023-02-18T00:50:26;99346.75;;;-5.18;100.00
70206;BME280;57593;55.896;37.396;2023-02-18T00:50:57;99352.50;;;-5.28;100.00
70206;BME280;57593;55.896;37.396;2023-02-18T00:51:30;99343.31;;;-5.35;100.00
70206;BME280;57593;55.896;37.396;2023-02-18T00:52:01;99336.25;;;-5.28;100.00
70206;BME280;57593;55.896;37.396;2023-02-18T00:52:32;99340.41;;;-5.39;100.00
70206;BME280;57593;55.896;37.396;2023-02-18T00:53:04;99339.84;;;-5.29;100.00
70206;BME280;57593;55.896;37.396;2023-02-18T00:53:35;99334.34;;;-5.56;100.00
70206;BME280;57593;55.896;37.396;2023-02-18T00:54:06;99338.50;;;-5.44;100.00
70206;BME280;57593;55.896;37.396;2023-02-18T00:54:37;99337.25;;;-5.41;100.00
70206;BME280;57593;55.896;37.396;2023-02-18T00:55:08;99327.41;;;-5.44;100.00
70206;BME280;57593;55.896;37.396;2023-02-18T00:55:43;99336.16;;;-5.45;100.00
70206;BME280;57593;55.896;37.396;2023-02-18T00:56:14;99328.78;;;-5.42;100.00
70206;BME280;57593;55.896;37.396;2023-02-18T00:56:46;99331.91;;;-5.39;100.00
70206;BME280;57593;55.896;37.396;2023-02-18T00:57:16;99327.19;;;-5.43;100.00
70206;BME280;57593;55.896;37.396;2023-02-18T00:57:47;99328.91;;;-5.48;100.00
70206;BME280;57593;55.896;37.396;2023-02-18T00:58:18;99330.66;;;-5.37;100.00
70206;BME280;57593;55.896;37.396;2023-02-18T00:58:49;99331.22;;;-5.35;100.00
70206;BME280;57593;55.896;37.396;2023-02-18T00:59:20;99332.47;;;-5.37;100.00
70206;BME280;57593;55.896;37.396;2023-02-18T00:59:50;99330.78;;;-5.44;100.00
70206;BME280;57593;55.896;37.396;2023-02-18T01:00:21;99331.91;;;-5.28;100.00
70206;BME280;57593;55.896;37.396;2023-02-18T01:00:52;99336.94;;;-5.33;100.00
70206;BME280;57593;55.896;37.396;2023-02-18T01:01:23;99337.81;;;-5.27;100.00
70206;BME280;57593;55.896;37.396;2023-02-18T01:01:54;99330.09;;;-5.15;100.00
70206;BME280;57593;55.896;37.396;2023-02-18T01:02:25;99327.19;;;-5.31;100.00
70206;BME280;57593;55.896;37.396;2023-02-18T01:02:55;99327.19;;;-5.31;100.00
70206;BME280;57593;55.896;37.396;2023-02-18T01:03:26;99318.56;;;-5.36;100.00
70206;BME280;57593;55.896;37.396;2023-02-18T01:03:57;99327.88;;;-5.35;100.00
70206;BME280;57593;55.896;37.396;2023-02-18T01:04:27;99323.63;;;-5.42;100.00
70206;BME280;57593;55.896;37.396;2023-02-18T01:04:58;99326.53;;;-5.38;100.00
70206;BME280;57593;55.896;37.396;2023-02-18T01:05:29;99325.88;;;-5.57;100.00
70206;BME280;57593;55.896;37.396;2023-02-18T01:06:00;99323.06;;;-5.44;100.00
70206;BME280;57593;55.896;37.396;2023-02-18T01:06:30;99324.16;;;-5.39;100.00
70206;BME280;57593;55.896;37.396;2023-02-18T01:07:01;99317.78;;;-5.37;100.00
70206;BME280;57593;55.896;37.396;2023-02-18T01:07:32;99318.25;;;-5.40;100.00
70206;BME280;57593;55.896;37.396;2023-02-18T01:08:03;99314.56;;;-5.32;100.00
70206;BME280;57593;55.896;37.396;2023-02-18T01:08:35;99313.31;;;-5.30;100.00
70206;BME280;57593;55.896;37.396;2023-02-18T01:09:07;99312.63;;;-5.25;100.00
70206;BME280;57593;55.896;37.396;2023-02-18T01:09:37;99315.91;;;-5.30;100.00
70206;BME280;57593;55.896;37.396;2023-02-18T01:10:08;99314.00;;;-5.34;100.00
70206;BME280;57593;55.896;37.396;2023-02-18T01:10:41;99316.53;;;-5.22;100.00
70206;BME280;57593;55.896;37.396;2023-02-18T01:11:13;99312.38;;;-5.24;100.00
70206;BME280;57593;55.896;37.396;2023-02-18T01:11:43;99307.94;;;-5.28;100.00
70206;BME280;57593;55.896;37.396;2023-02-18T01:12:14;99305.03;;;-5.32;100.00
70206;BME280;57593;55.896;37.396;2023-02-18T01:12:45;99304.13;;;-5.26;100.00
70206;BME280;57593;55.896;37.396;2023-02-18T01:13:16;99299.75;;;-5.25;100.00
70206;BME280;57593;55.896;37.396;2023-02-18T01:13:46;99301.69;;;-5.32;100.00
70206;BME280;57593;55.896;37.396;2023-02-18T01:14:17;99304.59;;;-5.40;100.00
70206;BME280;57593;55.896;37.396;2023-02-18T01:14:48;99306.06;;;-5.33;100.00
70206;BME280;57593;55.896;37.396;2023-02-18T01:15:19;99312.78;;;-5.44;100.00
70206;BME280;57593;55.896;37.396;2023-02-18T01:15:50;99306.81;;;-5.44;100.00
70206;BME280;57593;55.896;37.396;2023-02-18T01:16:20;99305.47;;;-5.35;100.00
70206;BME280;57593;55.896;37.396;2023-02-18T01:16:51;99310.16;;;-5.32;100.00
70206;BME280;57593;55.896;37.396;2023-02-18T01:17:22;99305.59;;;-5.42;100.00
70206;BME280;57593;55.896;37.396;2023-02-18T01:17:52;99297.22;;;-5.49;100.00
70206;BME280;57593;55.896;37.396;2023-02-18T01:18:24;99301.03;;;-5.51;100.00
70206;BME280;57593;55.896;37.396;2023-02-18T01:18:55;99298.22;;;-5.50;100.00
70206;BME280;57593;55.896;37.396;2023-02-18T01:19:26;99294.66;;;-5.61;100.00
70206;BME280;57593;55.896;37.396;2023-02-18T01:19:56;99291.41;;;-5.56;100.00
70206;BME280;57593;55.896;37.396;2023-02-18T01:20:27;99293.84;;;-5.37;100.00
70206;BME280;57593;55.896;37.396;2023-02-18T01:20:58;99294.31;;;-5.40;100.00
70206;BME280;57593;55.896;37.396;2023-02-18T01:21:29;99291.84;;;-5.47;100.00
70206;BME280;57593;55.896;37.396;2023-02-18T01:21:59;99296.66;;;-5.39;100.00
70206;BME280;57593;55.896;37.396;2023-02-18T01:22:30;99288.25;;;-5.34;100.00
70206;BME280;57593;55.896;37.396;2023-02-18T01:23:01;99279.88;;;-5.42;100.00
70206;BME280;57593;55.896;37.396;2023-02-18T01:23:31;99287.13;;;-5.50;100.00
70206;BME280;57593;55.896;37.396;2023-02-18T01:24:02;99291.19;;;-5.54;100.00
70206;BME280;57593;55.896;37.396;2023-02-18T01:24:33;99285.00;;;-5.53;100.00
70206;BME280;57593;55.896;37.396;2023-02-18T01:25:04;99285.38;;;-5.50;100.00
70206;BME280;57593;55.896;37.396;2023-02-18T01:25:36;99277.06;;;-5.52;100.00
70206;BME280;57593;55.896;37.396;2023-02-18T01:26:08;99273.72;;;-5.52;100.00
70206;BME280;57593;55.896;37.396;2023-02-18T01:26:41;99289.50;;;-5.61;100.00
70206;BME280;57593;55.896;37.396;2023-02-18T01:27:12;99281.00;;;-5.49;100.00
70206;BME280;57593;55.896;37.396;2023-02-18T01:27:45;99276.63;;;-5.49;100.00
70206;BME280;57593;55.896;37.396;2023-02-18T01:28:15;99283.66;;;-5.44;100.00
70206;BME280;57593;55.896;37.396;2023-02-18T01:28:47;99279.41;;;-5.50;100.00
70206;BME280;57593;55.896;37.396;2023-02-18T01:29:18;99281.22;;;-5.39;100.00
70206;BME280;57593;55.896;37.396;2023-02-18T01:29:49;99281.22;;;-5.39;100.00
70206;BME280;57593;55.896;37.396;2023-02-18T01:30:19;99272.81;;;-5.46;100.00
70206;BME280;57593;55.896;37.396;2023-02-18T01:30:52;99271.16;;;-5.52;100.00
70206;BME280;57593;55.896;37.396;2023-02-18T01:31:23;99274.03;;;-5.49;100.00
70206;BME280;57593;55.896;37.396;2023-02-18T01:31:54;99263.88;;;-5.55;100.00
70206;BME280;57593;55.896;37.396;2023-02-18T01:32:25;99265.44;;;-5.54;100.00
70206;BME280;57593;55.896;37.396;2023-02-18T01:32:56;99259.28;;;-5.42;100.00
70206;BME280;57593;55.896;37.396;2023-02-18T01:33:28;99257.72;;;-5.54;100.00
70206;BME280;57593;55.896;37.396;2023-02-18T01:33:59;99265.09;;;-5.58;100.00
70206;BME280;57593;55.896;37.396;2023-02-18T01:34:33;99269.91;;;-5.50;100.00
70206;BME280;57593;55.896;37.396;2023-02-18T01:35:05;99256.94;;;-5.43;100.00
70206;BME280;57593;55.896;37.396;2023-02-18T01:35:39;99266.69;;;-5.57;100.00
70206;BME280;57593;55.896;37.396;2023-02-18T01:36:10;99267.91;;;-5.60;100.00
70206;BME280;57593;55.896;37.396;2023-02-18T01:36:41;99267.03;;;-5.65;100.00
70206;BME280;57593;55.896;37.396;2023-02-18T01:37:12;99266.34;;;-5.72;100.00
70206;BME280;57593;55.896;37.396;2023-02-18T01:37:43;99269.59;;;-5.65;100.00
70206;BME280;57593;55.896;37.396;2023-02-18T01:38:14;99263.34;;;-5.57;100.00
70206;BME280;57593;55.896;37.396;2023-02-18T01:38:44;99261.66;;;-5.64;100.00
70206;BME280;57593;55.896;37.396;2023-02-18T01:39:15;99255.63;;;-5.81;100.00
70206;BME280;57593;55.896;37.396;2023-02-18T01:39:46;99252.38;;;-5.77;100.00
70206;BME280;57593;55.896;37.396;2023-02-18T01:40:21;99250.16;;;-5.73;100.00
70206;BME280;57593;55.896;37.396;2023-02-18T01:40:52;99247.13;;;-5.70;100.00
70206;BME280;57593;55.896;37.396;2023-02-18T01:41:24;99248.66;;;-5.69;100.00
70206;BME280;57593;55.896;37.396;2023-02-18T01:41:55;99247.56;;;-5.85;100.00
70206;BME280;57593;55.896;37.396;2023-02-18T01:42:27;99256.31;;;-5.86;100.00
70206;BME280;57593;55.896;37.396;2023-02-18T01:43:00;99251.16;;;-5.86;100.00
70206;BME280;57593;55.896;37.396;2023-02-18T01:43:31;99252.59;;;-5.90;100.00
70206;BME280;57593;55.896;37.396;2023-02-18T01:44:20;99243.31;;;-5.79;100.00
70206;BME280;57593;55.896;37.396;2023-02-18T01:44:51;99246.34;;;-5.82;100.00
70206;BME280;57593;55.896;37.396;2023-02-18T01:46:37;99244.31;;;-5.68;100.00
70206;BME280;57593;55.896;37.396;2023-02-18T01:47:08;99243.00;;;-5.83;100.00
70206;BME280;57593;55.896;37.396;2023-02-18T01:47:39;99229.56;;;-5.85;100.00
70206;BME280;57593;55.896;37.396;2023-02-18T01:48:24;99241.88;;;-5.87;100.00
70206;BME280;57593;55.896;37.396;2023-02-18T01:48:58;99240.06;;;-5.74;100.00
70206;BME280;57593;55.896;37.396;2023-02-18T01:49:33;99242.56;;;-5.80;100.00
70206;BME280;57593;55.896;37.396;2023-02-18T01:50:05;99235.25;;;-5.71;100.00
70206;BME280;57593;55.896;37.396;2023-02-18T01:50:41;99235.84;;;-5.81;100.00
70206;BME280;57593;55.896;37.396;2023-02-18T01:51:32;99234.84;;;-5.80;100.00
70206;BME280;57593;55.896;37.396;2023-02-18T01:52:20;99230.09;;;-5.59;100.00
70206;BME280;57593;55.896;37.396;2023-02-18T01:52:52;99229.56;;;-5.73;100.00
70206;BME280;57593;55.896;37.396;2023-02-18T01:53:27;99231.91;;;-5.71;100.00
70206;BME280;57593;55.896;37.396;2023-02-18T01:54:25;99228.47;;;-5.89;100.00
70206;BME280;57593;55.896;37.396;2023-02-18T01:54:58;99234.81;;;-5.91;100.00
70206;BME280;57593;55.896;37.396;2023-02-18T01:55:33;99233.69;;;-5.96;100.00
70206;BME280;57593;55.896;37.396;2023-02-18T01:56:07;99233.59;;;-5.89;100.00
70206;BME280;57593;55.896;37.396;2023-02-18T01:57:42;99231.38;;;-5.97;100.00
70206;BME280;57593;55.896;37.396;2023-02-18T01:57:48;99230.16;;;-6.06;100.00
70206;BME280;57593;55.896;37.396;2023-02-18T01:58:20;99229.06;;;-6.10;100.00
70206;BME280;57593;55.896;37.396;2023-02-18T01:58:53;99231.19;;;-6.07;100.00
70206;BME280;57593;55.896;37.396;2023-02-18T01:59:28;99226.25;;;-6.21;100.00
70206;BME280;57593;55.896;37.396;2023-02-18T02:00:05;99211.94;;;-6.17;100.00
70206;BME280;57593;55.896;37.396;2023-02-18T02:00:45;99224.00;;;-6.17;100.00
70206;BME280;57593;55.896;37.396;2023-02-18T02:01:18;99229.34;;;-5.95;100.00
70206;BME280;57593;55.896;37.396;2023-02-18T02:01:49;99220.44;;;-6.16;100.00
70206;BME280;57593;55.896;37.396;2023-02-18T02:02:21;99219.88;;;-6.18;100.00
70206;BME280;57593;55.896;37.396;2023-02-18T02:02:53;99220.78;;;-6.24;100.00
70206;BME280;57593;55.896;37.396;2023-02-18T02:03:24;99224.78;;;-6.17;100.00
70206;BME280;57593;55.896;37.396;2023-02-18T02:03:55;99223.00;;;-6.16;100.00
70206;BME280;57593;55.896;37.396;2023-02-18T02:04:26;99226.56;;;-6.17;100.00
70206;BME280;57593;55.896;37.396;2023-02-18T02:04:57;99219.00;;;-6.12;100.00
70206;BME280;57593;55.896;37.396;2023-02-18T02:05:32;99207.47;;;-6.09;100.00
70206;BME280;57593;55.896;37.396;2023-02-18T02:06:08;99216.31;;;-6.05;100.00
70206;BME280;57593;55.896;37.396;2023-02-18T02:06:44;99211.94;;;-6.05;100.00
70206;BME280;57593;55.896;37.396;2023-02-18T02:07:17;99209.47;;;-6.11;100.00
70206;BME280;57593;55.896;37.396;2023-02-18T02:07:51;99214.16;;;-6.20;100.00
70206;BME280;57593;55.896;37.396;2023-02-18T02:08:23;99206.69;;;-6.10;100.00
70206;BME280;57593;55.896;37.396;2023-02-18T02:08:59;99208.91;;;-6.02;100.00
70206;BME280;57593;55.896;37.396;2023-02-18T02:09:31;99217.50;;;-5.96;100.00
70206;BME280;57593;55.896;37.396;2023-02-18T02:10:03;99218.19;;;-6.01;100.00
70206;BME280;57593;55.896;37.396;2023-02-18T02:10:58;99211.34;;;-5.95;100.00
70206;BME280;57593;55.896;37.396;2023-02-18T02:11:55;99200.03;;;-5.94;100.00
70206;BME280;57593;55.896;37.396;2023-02-18T02:12:53;99208.03;;;-6.07;100.00
70206;BME280;57593;55.896;37.396;2023-02-18T02:14:26;99204.00;;;-6.03;100.00
70206;BME280;57593;55.896;37.396;2023-02-18T02:19:22;99208.13;;;-5.90;100.00
70206;BME280;57593;55.896;37.396;2023-02-18T02:21:43;99196.25;;;-5.80;100.00
70206;BME280;57593;55.896;37.396;2023-02-18T02:23:01;99195.53;;;-5.75;100.00
70206;BME280;57593;55.896;37.396;2023-02-18T02:24:03;99196.88;;;-5.61;100.00
70206;BME280;57593;55.896;37.396;2023-02-18T02:27:25;99183.63;;;-5.81;100.00
70206;BME280;57593;55.896;37.396;2023-02-18T02:34:11;99179.69;;;-5.96;100.00
70206;BME280;57593;55.896;37.396;2023-02-18T02:35:55;99180.75;;;-6.08;100.00
70206;BME280;57593;55.896;37.396;2023-02-18T02:36:51;99175.94;;;-6.05;100.00
70206;BME280;57593;55.896;37.396;2023-02-18T02:38:24;99178.84;;;-6.01;100.00
70206;BME280;57593;55.896;37.396;2023-02-18T02:39:18;99181.19;;;-6.00;100.00
70206;BME280;57593;55.896;37.396;2023-02-18T02:41:04;99171.31;;;-5.91;100.00
70206;BME280;57593;55.896;37.396;2023-02-18T02:41:56;99169.94;;;-5.82;100.00
70206;BME280;57593;55.896;37.396;2023-02-18T02:43:34;99165.16;;;-5.90;100.00
70206;BME280;57593;55.896;37.396;2023-02-18T02:44:11;99157.84;;;-6.10;100.00
70206;BME280;57593;55.896;37.396;2023-02-18T02:45:00;99174.00;;;-5.86;100.00
70206;BME280;57593;55.896;37.396;2023-02-18T02:45:58;99174.56;;;-5.96;100.00
70206;BME280;57593;55.896;37.396;2023-02-18T02:46:44;99159.94;;;-5.95;100.00
70206;BME280;57593;55.896;37.396;2023-02-18T02:47:31;99161.59;;;-5.89;100.00
70206;BME280;57593;55.896;37.396;2023-02-18T02:48:31;99161.69;;;-5.84;100.00
70206;BME280;57593;55.896;37.396;2023-02-18T02:49:52;99159.56;;;-5.87;100.00
70206;BME280;57593;55.896;37.396;2023-02-18T02:50:43;99159.34;;;-5.85;100.00
70206;BME280;57593;55.896;37.396;2023-02-18T02:51:20;99160.78;;;-5.89;100.00
70206;BME280;57593;55.896;37.396;2023-02-18T02:52:02;99158.91;;;-5.94;100.00
70206;BME280;57593;55.896;37.396;2023-02-18T02:52:43;99161.31;;;-5.75;100.00
70206;BME280;57593;55.896;37.396;2023-02-18T02:53:16;99155.09;;;-5.80;100.00
70206;BME280;57593;55.896;37.396;2023-02-18T02:53:50;99147.63;;;-5.93;100.00
70206;BME280;57593;55.896;37.396;2023-02-18T02:54:23;99149.41;;;-5.93;100.00
70206;BME280;57593;55.896;37.396;2023-02-18T02:54:55;99152.97;;;-5.83;100.00
70206;BME280;57593;55.896;37.396;2023-02-18T02:55:26;99153.47;;;-5.69;100.00
70206;BME280;57593;55.896;37.396;2023-02-18T02:55:58;99157.97;;;-5.76;100.00
70206;BME280;57593;55.896;37.396;2023-02-18T02:56:29;99158.84;;;-5.70;100.00
70206;BME280;57593;55.896;37.396;2023-02-18T02:57:42;99151.25;;;-5.65;100.00
70206;BME280;57593;55.896;37.396;2023-02-18T02:58:18;99152.63;;;-5.86;100.00
70206;BME280;57593;55.896;37.396;2023-02-18T02:59:13;99152.25;;;-5.78;100.00
70206;BME280;57593;55.896;37.396;2023-02-18T02:59:49;99151.16;;;-5.82;100.00
70206;BME280;57593;55.896;37.396;2023-02-18T03:03:37;99156.63;;;-5.79;100.00
70206;BME280;57593;55.896;37.396;2023-02-18T03:05:28;99153.06;;;-5.78;100.00
70206;BME280;57593;55.896;37.396;2023-02-18T03:11:28;99147.56;;;-5.98;100.00
70206;BME280;57593;55.896;37.396;2023-02-18T03:12:16;99147.44;;;-6.03;100.00
70206;BME280;57593;55.896;37.396;2023-02-18T03:13:11;99150.50;;;-5.89;100.00
70206;BME280;57593;55.896;37.396;2023-02-18T03:15:51;99142.78;;;-5.89;100.00
70206;BME280;57593;55.896;37.396;2023-02-18T03:17:15;99130.91;;;-6.07;100.00
70206;BME280;57593;55.896;37.396;2023-02-18T03:18:39;99124.41;;;-6.10;100.00
70206;BME280;57593;55.896;37.396;2023-02-18T03:19:37;99132.41;;;-5.94;100.00
70206;BME280;57593;55.896;37.396;2023-02-18T03:20:40;99129.78;;;-6.11;100.00
70206;BME280;57593;55.896;37.396;2023-02-18T03:21:21;99138.25;;;-5.99;100.00
70206;BME280;57593;55.896;37.396;2023-02-18T03:22:38;99128.03;;;-5.94;100.00
70206;BME280;57593;55.896;37.396;2023-02-18T03:23:10;99122.44;;;-5.91;100.00
70206;BME280;57593;55.896;37.396;2023-02-18T03:23:55;99125.19;;;-5.98;100.00
70206;BME280;57593;55.896;37.396;2023-02-18T03:24:39;99122.66;;;-6.21;100.00
70206;BME280;57593;55.896;37.396;2023-02-18T03:25:12;99122.06;;;-6.23;100.00
70206;BME280;57593;55.896;37.396;2023-02-18T03:25:44;99110.81;;;-6.34;100.00
70206;BME280;57593;55.896;37.396;2023-02-18T03:26:17;99115.94;;;-6.46;100.00
70206;BME280;57593;55.896;37.396;2023-02-18T03:26:55;99107.66;;;-6.36;100.00
70206;BME280;57593;55.896;37.396;2023-02-18T03:27:33;99114.56;;;-6.25;100.00
70206;BME280;57593;55.896;37.396;2023-02-18T03:28:27;99105.56;;;-6.27;100.00
70206;BME280;57593;55.896;37.396;2023-02-18T03:29:03;99101.31;;;-6.34;100.00
70206;BME280;57593;55.896;37.396;2023-02-18T03:29:37;99103.88;;;-6.34;100.00
70206;BME280;57593;55.896;37.396;2023-02-18T03:30:13;99098.84;;;-6.28;100.00
70206;BME280;57593;55.896;37.396;2023-02-18T03:30:52;99095.28;;;-6.27;100.00
70206;BME280;57593;55.896;37.396;2023-02-18T03:31:26;99106.34;;;-6.39;100.00
70206;BME280;57593;55.896;37.396;2023-02-18T03:32:01;99108.66;;;-6.25;100.00
70206;BME280;57593;55.896;37.396;2023-02-18T03:32:33;99099.50;;;-6.33;100.00
70206;BME280;57593;55.896;37.396;2023-02-18T03:33:06;99096.59;;;-6.25;100.00
70206;BME280;57593;55.896;37.396;2023-02-18T03:33:43;99099.69;;;-6.11;100.00
70206;BME280;57593;55.896;37.396;2023-02-18T03:34:19;99104.66;;;-6.21;100.00